sensor_id;sensor_type;location;lat;lon;timestamp;pressure;altitude;pressure_sealevel;temperature;humidity
77482;BME280;66582;43.004;-75.010;2023-07-30T00:01:40;99554.00;;;22.09;92.15
77482;BME280;66582;43.004;-75.010;2023-07-30T00:04:05;99562.07;;;22.24;93.01
77482;BME280;66582;43.004;-75.010;2023-07-30T00:06:31;99558.67;;;22.77;88.77
77482;BME280;66582;43.004;-75.010;2023-07-30T00:08:56;99556.42;;;23.81;83.31
77482;BME280;66582;43.004;-75.010;2023-07-30T00:11:21;99551.65;;;24.36;79.83
77482;BME280;66582;43.004;-75.010;2023-07-30T00:13:46;99555.95;;;23.68;83.05
77482;BME280;66582;43.004;-75.010;2023-07-30T00:16:12;99560.64;;;22.81;87.43
77482;BME280;66582;43.004;-75.010;2023-07-30T00:18:37;99563.16;;;23.30;85.11
77482;BME280;66582;43.004;-75.010;2023-07-30T00:21:02;99565.24;;;21.50;93.60
77482;BME280;66582;43.004;-75.010;2023-07-30T00:23:26;99560.15;;;23.35;84.77
77482;BME280;66582;43.004;-75.010;2023-07-30T00:25:52;99549.42;;;23.59;83.96
77482;BME280;66582;43.004;-75.010;2023-07-30T00:28:17;99550.89;;;23.66;83.05
77482;BME280;66582;43.004;-75.010;2023-07-30T00:30:42;99548.51;;;23.95;80.21
77482;BME280;66582;43.004;-75.010;2023-07-30T00:33:07;99563.93;;;23.40;81.89
77482;BME280;66582;43.004;-75.010;2023-07-30T00:35:32;99572.14;;;22.65;86.85
77482;BME280;66582;43.004;-75.010;2023-07-30T00:37:58;99576.18;;;23.06;85.39
77482;BME280;66582;43.004;-75.010;2023-07-30T00:40:23;99578.23;;;22.05;90.38
77482;BME280;66582;43.004;-75.010;2023-07-30T00:42:48;99583.69;;;22.07;91.69
77482;BME280;66582;43.004;-75.010;2023-07-30T00:45:13;99593.96;;;21.80;93.63
77482;BME280;66582;43.004;-75.010;2023-07-30T00:47:39;99603.41;;;21.24;97.22
77482;BME280;66582;43.004;-75.010;2023-07-30T00:50:04;99613.68;;;21.50;98.72
77482;BME280;66582;43.004;-75.010;2023-07-30T00:52:31;99615.67;;;21.38;96.28
77482;BME280;66582;43.004;-75.010;2023-07-30T00:54:55;99619.77;;;20.87;98.42
77482;BME280;66582;43.004;-75.010;2023-07-30T00:57:19;99623.85;;;20.68;97.28
77482;BME280;66582;43.004;-75.010;2023-07-30T00:59:45;99638.35;;;20.01;100.00
77482;BME280;66582;43.004;-75.010;2023-07-30T01:02:11;99661.50;;;19.66;100.00
77482;BME280;66582;43.004;-75.010;2023-07-30T01:04:36;99674.89;;;19.77;100.00
77482;BME280;66582;43.004;-75.010;2023-07-30T01:07:00;99674.42;;;19.04;100.00
77482;BME280;66582;43.004;-75.010;2023-07-30T01:09:26;99684.38;;;18.86;100.00
77482;BME280;66582;43.004;-75.010;2023-07-30T01:11:51;99687.18;;;19.94;99.48
77482;BME280;66582;43.004;-75.010;2023-07-30T01:14:17;99690.26;;;20.12;100.00
77482;BME280;66582;43.004;-75.010;2023-07-30T01:16:41;99689.33;;;18.99;100.00
77482;BME280;66582;43.004;-75.010;2023-07-30T01:19:06;99696.03;;;19.92;96.93
77482;BME280;66582;43.004;-75.010;2023-07-30T01:21:33;99705.73;;;19.17;99.05
77482;BME280;66582;43.004;-75.010;2023-07-30T01:23:57;99710.07;;;18.96;100.00
77482;BME280;66582;43.004;-75.010;2023-07-30T01:26:27;99713.21;;;18.65;100.00
77482;BME280;66582;43.004;-75.010;2023-07-30T01:28:50;99721.37;;;18.70;99.76
77482;BME280;66582;43.004;-75.010;2023-07-30T01:31:15;99733.41;;;17.29;100.00
77482;BME280;66582;43.004;-75.010;2023-07-30T01:33:39;99729.38;;;18.96;100.00
77482;BME280;66582;43.004;-75.010;2023-07-30T01:36:03;99737.00;;;18.96;99.49
77482;BME280;66582;43.004;-75.010;2023-07-30T01:38:28;99752.00;;;18.47;100.00
77482;BME280;66582;43.004;-75.010;2023-07-30T01:40:53;99751.90;;;18.04;100.00
77482;BME280;66582;43.004;-75.010;2023-07-30T01:43:18;99754.17;;;18.32;100.00
77482;BME280;66582;43.004;-75.010;2023-07-30T01:45:43;99757.65;;;18.96;98.05
77482;BME280;66582;43.004;-75.010;2023-07-30T01:48:08;99764.30;;;18.53;99.51
77482;BME280;66582;43.004;-75.010;2023-07-30T01:50:33;99766.28;;;18.57;99.86
77482;BME280;66582;43.004;-75.010;2023-07-30T01:52:58;99764.94;;;18.78;96.55
77482;BME280;66582;43.004;-75.010;2023-07-30T01:55:24;99773.54;;;18.56;98.18
77482;BME280;66582;43.004;-75.010;2023-07-30T01:57:49;99773.05;;;19.00;96.60
77482;BME280;66582;43.004;-75.010;2023-07-30T02:00:14;99776.86;;;17.89;100.00
77482;BME280;66582;43.004;-75.010;2023-07-30T02:02:40;99779.80;;;18.52;99.94
77482;BME280;66582;43.004;-75.010;2023-07-30T02:05:05;99781.38;;;18.56;96.84
77482;BME280;66582;43.004;-75.010;2023-07-30T02:07:29;99784.06;;;18.44;94.95
77482;BME280;66582;43.004;-75.010;2023-07-30T02:09:55;99784.98;;;19.28;93.73
77482;BME280;66582;43.004;-75.010;2023-07-30T02:12:21;99787.82;;;19.12;91.27
77482;BME280;66582;43.004;-75.010;2023-07-30T02:14:45;99794.63;;;20.59;87.74
77482;BME280;66582;43.004;-75.010;2023-07-30T02:17:10;99787.96;;;19.34;88.87
77482;BME280;66582;43.004;-75.010;2023-07-30T02:19:35;99788.35;;;18.75;92.10
77482;BME280;66582;43.004;-75.010;2023-07-30T02:22:00;99790.50;;;17.69;96.64
77482;BME280;66582;43.004;-75.010;2023-07-30T02:24:29;99777.84;;;18.70;92.91
77482;BME280;66582;43.004;-75.010;2023-07-30T02:26:51;99778.57;;;19.55;88.56
77482;BME280;66582;43.004;-75.010;2023-07-30T02:29:16;99781.09;;;19.64;85.50
77482;BME280;66582;43.004;-75.010;2023-07-30T02:31:42;99800.44;;;20.30;84.42
77482;BME280;66582;43.004;-75.010;2023-07-30T02:34:12;99803.36;;;19.67;82.38
77482;BME280;66582;43.004;-75.010;2023-07-30T02:36:31;99808.68;;;18.97;87.93
77482;BME280;66582;43.004;-75.010;2023-07-30T02:38:57;99823.49;;;18.89;91.48
77482;BME280;66582;43.004;-75.010;2023-07-30T02:41:22;99838.14;;;18.10;93.32
77482;BME280;66582;43.004;-75.010;2023-07-30T02:43:47;99844.27;;;19.14;90.79
77482;BME280;66582;43.004;-75.010;2023-07-30T02:46:12;99842.31;;;19.17;88.13
77482;BME280;66582;43.004;-75.010;2023-07-30T02:48:37;99855.73;;;19.40;89.49
77482;BME280;66582;43.004;-75.010;2023-07-30T02:51:03;99870.88;;;18.09;91.84
77482;BME280;66582;43.004;-75.010;2023-07-30T02:53:28;99883.65;;;19.41;88.43
77482;BME280;66582;43.004;-75.010;2023-07-30T02:55:53;99896.80;;;18.19;86.95
77482;BME280;66582;43.004;-75.010;2023-07-30T02:58:18;99903.92;;;18.67;85.36
77482;BME280;66582;43.004;-75.010;2023-07-30T03:00:45;99904.35;;;19.63;81.43
77482;BME280;66582;43.004;-75.010;2023-07-30T03:03:09;99918.16;;;19.51;81.04
77482;BME280;66582;43.004;-75.010;2023-07-30T03:05:34;99928.78;;;19.44;83.21
77482;BME280;66582;43.004;-75.010;2023-07-30T03:07:59;99929.29;;;18.44;81.82
77482;BME280;66582;43.004;-75.010;2023-07-30T03:10:24;99928.96;;;19.24;84.56
77482;BME280;66582;43.004;-75.010;2023-07-30T03:12:50;99938.59;;;20.04;78.33
77482;BME280;66582;43.004;-75.010;2023-07-30T03:15:15;99941.95;;;19.29;80.08
77482;BME280;66582;43.004;-75.010;2023-07-30T03:17:40;99947.55;;;18.15;86.50
77482;BME280;66582;43.004;-75.010;2023-07-30T03:20:06;99955.48;;;18.59;83.49
77482;BME280;66582;43.004;-75.010;2023-07-30T03:22:31;99959.13;;;18.43;83.53
77482;BME280;66582;43.004;-75.010;2023-07-30T03:24:56;99973.74;;;17.74;86.28
77482;BME280;66582;43.004;-75.010;2023-07-30T03:27:20;99975.29;;;18.20;84.71
77482;BME280;66582;43.004;-75.010;2023-07-30T03:29:49;99984.39;;;17.40;89.03
77482;BME280;66582;43.004;-75.010;2023-07-30T03:32:11;99986.12;;;19.43;80.27
77482;BME280;66582;43.004;-75.010;2023-07-30T03:34:36;99990.60;;;19.40;81.17
77482;BME280;66582;43.004;-75.010;2023-07-30T03:37:00;99984.40;;;19.71;82.26
77482;BME280;66582;43.004;-75.010;2023-07-30T03:39:26;99982.23;;;19.38;77.58
77482;BME280;66582;43.004;-75.010;2023-07-30T03:41:50;99971.26;;;19.98;79.57
77482;BME280;66582;43.004;-75.010;2023-07-30T03:44:17;99962.19;;;20.96;75.50
77482;BME280;66582;43.004;-75.010;2023-07-30T03:46:41;99956.00;;;20.81;74.83
77482;BME280;66582;43.004;-75.010;2023-07-30T03:49:06;99963.18;;;20.39;76.30
77482;BME280;66582;43.004;-75.010;2023-07-30T03:51:32;99963.70;;;19.08;79.13
77482;BME280;66582;43.004;-75.010;2023-07-30T03:53:57;99957.51;;;20.06;78.35
77482;BME280;66582;43.004;-75.010;2023-07-30T03:56:21;99958.16;;;18.31;81.10
77482;BME280;66582;43.004;-75.010;2023-07-30T03:58:47;99969.98;;;19.03;79.74
77482;BME280;66582;43.004;-75.010;2023-07-30T04:01:12;99968.74;;;20.16;76.49
77482;BME280;66582;43.004;-75.010;2023-07-30T04:03:37;99962.38;;;19.53;76.03
77482;BME280;66582;43.004;-75.010;2023-07-30T04:06:03;99970.41;;;20.05;76.26
77482;BME280;66582;43.004;-75.010;2023-07-30T04:08:30;99974.16;;;20.89;73.88
77482;BME280;66582;43.004;-75.010;2023-07-30T04:10:52;99980.85;;;19.42;77.58
77482;BME280;66582;43.004;-75.010;2023-07-30T04:13:17;99975.26;;;20.99;74.28
77482;BME280;66582;43.004;-75.010;2023-07-30T04:15:42;99965.55;;;20.22;74.61
77482;BME280;66582;43.004;-75.010;2023-07-30T04:18:08;99963.36;;;19.93;76.61
77482;BME280;66582;43.004;-75.010;2023-07-30T04:20:33;99956.28;;;20.23;77.78
77482;BME280;66582;43.004;-75.010;2023-07-30T04:22:58;99963.79;;;20.33;74.98
77482;BME280;66582;43.004;-75.010;2023-07-30T04:25:24;99973.25;;;20.40;76.69
77482;BME280;66582;43.004;-75.010;2023-07-30T04:27:49;99977.16;;;20.78;77.65
77482;BME280;66582;43.004;-75.010;2023-07-30T04:30:14;99980.93;;;20.94;73.99
77482;BME280;66582;43.004;-75.010;2023-07-30T04:32:40;99979.27;;;20.92;73.60
77482;BME280;66582;43.004;-75.010;2023-07-30T04:35:05;99981.59;;;20.14;74.18
77482;BME280;66582;43.004;-75.010;2023-07-30T04:37:29;99985.89;;;17.20;83.47
77482;BME280;66582;43.004;-75.010;2023-07-30T04:39:56;99974.06;;;19.44;78.95
77482;BME280;66582;43.004;-75.010;2023-07-30T04:42:21;99979.41;;;20.60;76.04
77482;BME280;66582;43.004;-75.010;2023-07-30T04:44:45;99980.00;;;20.90;75.41
77482;BME280;66582;43.004;-75.010;2023-07-30T04:47:10;99990.05;;;21.74;70.13
77482;BME280;66582;43.004;-75.010;2023-07-30T04:49:35;99992.86;;;21.37;70.65
77482;BME280;66582;43.004;-75.010;2023-07-30T04:52:00;99989.57;;;20.47;72.95
77482;BME280;66582;43.004;-75.010;2023-07-30T04:54:25;99990.29;;;21.27;71.12
77482;BME280;66582;43.004;-75.010;2023-07-30T04:56:51;99994.29;;;20.88;71.62
77482;BME280;66582;43.004;-75.010;2023-07-30T04:59:16;99998.59;;;20.90;72.92
77482;BME280;66582;43.004;-75.010;2023-07-30T05:01:41;99997.38;;;20.62;72.15
77482;BME280;66582;43.004;-75.010;2023-07-30T05:04:06;100005.55;;;20.52;74.43
77482;BME280;66582;43.004;-75.010;2023-07-30T05:06:31;100003.26;;;21.08;75.37
77482;BME280;66582;43.004;-75.010;2023-07-30T05:08:57;99994.95;;;20.72;73.70
77482;BME280;66582;43.004;-75.010;2023-07-30T05:11:22;99993.63;;;19.66;78.44
77482;BME280;66582;43.004;-75.010;2023-07-30T05:13:47;99993.05;;;21.58;72.28
77482;BME280;66582;43.004;-75.010;2023-07-30T05:16:12;100001.68;;;21.23;73.85
77482;BME280;66582;43.004;-75.010;2023-07-30T05:18:37;100000.37;;;20.18;74.32
77482;BME280;66582;43.004;-75.010;2023-07-30T05:21:02;100000.12;;;20.43;74.69
77482;BME280;66582;43.004;-75.010;2023-07-30T05:23:28;100007.64;;;20.12;76.76
77482;BME280;66582;43.004;-75.010;2023-07-30T05:25:52;100005.20;;;20.88;73.47
77482;BME280;66582;43.004;-75.010;2023-07-30T05:28:18;100007.91;;;20.96;73.35
77482;BME280;66582;43.004;-75.010;2023-07-30T05:30:43;100013.14;;;20.33;76.56
77482;BME280;66582;43.004;-75.010;2023-07-30T05:33:09;100015.21;;;21.19;72.82
77482;BME280;66582;43.004;-75.010;2023-07-30T05:35:33;100018.76;;;21.08;72.29
77482;BME280;66582;43.004;-75.010;2023-07-30T05:37:59;100013.18;;;20.28;72.27
77482;BME280;66582;43.004;-75.010;2023-07-30T05:40:23;100006.87;;;19.73;75.97
77482;BME280;66582;43.004;-75.010;2023-07-30T05:42:49;100009.69;;;19.91;74.37
77482;BME280;66582;43.004;-75.010;2023-07-30T05:45:13;100014.31;;;19.59;74.25
77482;BME280;66582;43.004;-75.010;2023-07-30T05:47:39;100011.75;;;19.33;77.93
77482;BME280;66582;43.004;-75.010;2023-07-30T05:50:05;100006.18;;;20.43;73.74
77482;BME280;66582;43.004;-75.010;2023-07-30T05:52:29;100003.65;;;19.90;74.32
77482;BME280;66582;43.004;-75.010;2023-07-30T05:54:54;100001.06;;;20.45;72.81
77482;BME280;66582;43.004;-75.010;2023-07-30T05:57:20;99997.17;;;20.23;72.73
77482;BME280;66582;43.004;-75.010;2023-07-30T05:59:45;99994.95;;;21.57;69.20
77482;BME280;66582;43.004;-75.010;2023-07-30T06:02:09;99991.31;;;20.48;71.83
77482;BME280;66582;43.004;-75.010;2023-07-30T06:04:35;99998.81;;;20.40;73.10
77482;BME280;66582;43.004;-75.010;2023-07-30T06:07:01;99995.78;;;20.49;72.70
77482;BME280;66582;43.004;-75.010;2023-07-30T06:09:26;99994.68;;;20.34;73.14
77482;BME280;66582;43.004;-75.010;2023-07-30T06:11:52;99998.29;;;20.66;71.27
77482;BME280;66582;43.004;-75.010;2023-07-30T06:14:17;100000.81;;;19.56;74.79
77482;BME280;66582;43.004;-75.010;2023-07-30T06:16:41;100000.63;;;20.02;73.55
77482;BME280;66582;43.004;-75.010;2023-07-30T06:19:07;99991.81;;;20.01;73.07
77482;BME280;66582;43.004;-75.010;2023-07-30T06:21:32;99987.92;;;20.20;70.61
77482;BME280;66582;43.004;-75.010;2023-07-30T06:23:57;99982.77;;;20.94;70.32
77482;BME280;66582;43.004;-75.010;2023-07-30T06:26:23;99978.31;;;19.44;73.41
77482;BME280;66582;43.004;-75.010;2023-07-30T06:28:47;99976.34;;;19.43;74.04
77482;BME280;66582;43.004;-75.010;2023-07-30T06:31:12;99977.43;;;19.47;74.32
77482;BME280;66582;43.004;-75.010;2023-07-30T06:33:37;99976.39;;;19.66;74.85
77482;BME280;66582;43.004;-75.010;2023-07-30T06:36:03;99971.25;;;20.08;72.84
77482;BME280;66582;43.004;-75.010;2023-07-30T06:38:28;99971.20;;;20.37;70.67
77482;BME280;66582;43.004;-75.010;2023-07-30T06:40:54;99976.09;;;18.00;78.56
77482;BME280;66582;43.004;-75.010;2023-07-30T06:43:18;99977.35;;;18.82;77.68
77482;BME280;66582;43.004;-75.010;2023-07-30T06:45:43;99972.17;;;18.81;77.23
77482;BME280;66582;43.004;-75.010;2023-07-30T06:48:09;99966.05;;;19.57;74.25
77482;BME280;66582;43.004;-75.010;2023-07-30T06:50:33;99972.23;;;19.20;75.46
77482;BME280;66582;43.004;-75.010;2023-07-30T06:52:59;99979.83;;;19.22;75.80
77482;BME280;66582;43.004;-75.010;2023-07-30T06:55:25;99975.79;;;18.73;77.41
77482;BME280;66582;43.004;-75.010;2023-07-30T06:57:49;99973.21;;;19.34;75.98
77482;BME280;66582;43.004;-75.010;2023-07-30T07:00:15;99984.39;;;18.37;80.85
77482;BME280;66582;43.004;-75.010;2023-07-30T07:02:40;99982.23;;;19.14;77.60
77482;BME280;66582;43.004;-75.010;2023-07-30T07:05:05;99976.96;;;18.55;80.14
77482;BME280;66582;43.004;-75.010;2023-07-30T07:07:30;99971.87;;;18.82;78.43
77482;BME280;66582;43.004;-75.010;2023-07-30T07:09:55;99967.38;;;19.07;77.93
77482;BME280;66582;43.004;-75.010;2023-07-30T07:12:21;99970.16;;;19.30;78.05
77482;BME280;66582;43.004;-75.010;2023-07-30T07:14:46;99963.67;;;19.53;77.29
77482;BME280;66582;43.004;-75.010;2023-07-30T07:17:11;99965.76;;;20.32;74.76
77482;BME280;66582;43.004;-75.010;2023-07-30T07:19:36;99970.10;;;20.13;76.43
77482;BME280;66582;43.004;-75.010;2023-07-30T07:22:02;99977.65;;;20.04;75.94
77482;BME280;66582;43.004;-75.010;2023-07-30T07:24:27;99980.47;;;19.83;75.57
77482;BME280;66582;43.004;-75.010;2023-07-30T07:26:52;99983.72;;;19.57;76.58
77482;BME280;66582;43.004;-75.010;2023-07-30T07:29:17;99994.22;;;19.21;77.75
77482;BME280;66582;43.004;-75.010;2023-07-30T07:31:42;99991.42;;;19.64;74.02
77482;BME280;66582;43.004;-75.010;2023-07-30T07:34:08;99994.15;;;19.03;81.78
77482;BME280;66582;43.004;-75.010;2023-07-30T07:36:32;99986.66;;;20.21;75.94
77482;BME280;66582;43.004;-75.010;2023-07-30T07:38:58;99987.58;;;20.88;73.21
77482;BME280;66582;43.004;-75.010;2023-07-30T07:41:23;99983.19;;;20.20;72.77
77482;BME280;66582;43.004;-75.010;2023-07-30T07:43:48;99979.01;;;19.95;72.25
77482;BME280;66582;43.004;-75.010;2023-07-30T07:46:13;99979.80;;;20.19;72.48
77482;BME280;66582;43.004;-75.010;2023-07-30T07:48:38;99984.51;;;19.35;74.53
77482;BME280;66582;43.004;-75.010;2023-07-30T07:51:03;99978.96;;;19.54;73.52
77482;BME280;66582;43.004;-75.010;2023-07-30T07:53:28;99981.84;;;19.09;75.40
77482;BME280;66582;43.004;-75.010;2023-07-30T07:55:54;99975.14;;;20.76;71.17
77482;BME280;66582;43.004;-75.010;2023-07-30T07:58:19;99973.86;;;20.18;71.38
77482;BME280;66582;43.004;-75.010;2023-07-30T08:00:44;99968.52;;;20.61;70.16
77482;BME280;66582;43.004;-75.010;2023-07-30T08:03:09;99964.25;;;20.94;68.64
77482;BME280;66582;43.004;-75.010;2023-07-30T08:05:34;99967.64;;;20.43;68.22
77482;BME280;66582;43.004;-75.010;2023-07-30T08:07:59;99953.78;;;21.21;67.23
77482;BME280;66582;43.004;-75.010;2023-07-30T08:10:24;99967.61;;;18.69;74.15
77482;BME280;66582;43.004;-75.010;2023-07-30T08:12:50;99970.57;;;19.86;71.01
77482;BME280;66582;43.004;-75.010;2023-07-30T08:15:15;99973.05;;;19.39;72.94
77482;BME280;66582;43.004;-75.010;2023-07-30T08:17:40;99974.00;;;19.86;71.39
77482;BME280;66582;43.004;-75.010;2023-07-30T08:20:06;99976.25;;;19.90;71.86
77482;BME280;66582;43.004;-75.010;2023-07-30T08:22:31;99977.50;;;19.50;73.05
77482;BME280;66582;43.004;-75.010;2023-07-30T08:24:56;99982.13;;;19.56;74.01
77482;BME280;66582;43.004;-75.010;2023-07-30T08:27:21;99978.73;;;19.75;73.01
77482;BME280;66582;43.004;-75.010;2023-07-30T08:29:46;99980.70;;;20.23;70.63
77482;BME280;66582;43.004;-75.010;2023-07-30T08:32:11;99982.85;;;19.42;73.33
77482;BME280;66582;43.004;-75.010;2023-07-30T08:34:37;99987.93;;;18.79;73.36
77482;BME280;66582;43.004;-75.010;2023-07-30T08:37:03;99988.77;;;19.05;73.01
77482;BME280;66582;43.004;-75.010;2023-07-30T08:39:27;99999.15;;;15.47;90.39
77482;BME280;66582;43.004;-75.010;2023-07-30T08:41:52;99995.38;;;16.08;91.66
77482;BME280;66582;43.004;-75.010;2023-07-30T08:44:17;99990.50;;;17.83;84.97
77482;BME280;66582;43.004;-75.010;2023-07-30T08:46:43;99990.50;;;18.34;83.27
77482;BME280;66582;43.004;-75.010;2023-07-30T08:49:08;99991.04;;;17.31;84.97
77482;BME280;66582;43.004;-75.010;2023-07-30T08:51:34;99985.02;;;18.60;80.43
77482;BME280;66582;43.004;-75.010;2023-07-30T08:53:58;99984.64;;;18.24;79.47
77482;BME280;66582;43.004;-75.010;2023-07-30T08:56:23;99979.65;;;18.58;77.74
77482;BME280;66582;43.004;-75.010;2023-07-30T08:58:49;99983.94;;;19.29;75.52
77482;BME280;66582;43.004;-75.010;2023-07-30T09:01:15;99983.52;;;18.50;78.44
77482;BME280;66582;43.004;-75.010;2023-07-30T09:03:40;99986.48;;;18.44;80.77
77482;BME280;66582;43.004;-75.010;2023-07-30T09:06:04;99983.82;;;18.88;77.75
77482;BME280;66582;43.004;-75.010;2023-07-30T09:08:29;99980.58;;;18.92;78.90
77482;BME280;66582;43.004;-75.010;2023-07-30T09:10:54;99982.94;;;19.39;76.85
77482;BME280;66582;43.004;-75.010;2023-07-30T09:13:21;99986.07;;;19.14;76.64
77482;BME280;66582;43.004;-75.010;2023-07-30T09:15:48;99986.70;;;19.78;71.76
77482;BME280;66582;43.004;-75.010;2023-07-30T09:18:09;99991.77;;;19.98;72.19
77482;BME280;66582;43.004;-75.010;2023-07-30T09:20:39;99994.85;;;18.82;75.29
77482;BME280;66582;43.004;-75.010;2023-07-30T09:23:00;99993.70;;;19.13;76.11
77482;BME280;66582;43.004;-75.010;2023-07-30T09:25:25;99990.07;;;18.74;76.83
77482;BME280;66582;43.004;-75.010;2023-07-30T09:27:51;99989.57;;;18.82;76.82
77482;BME280;66582;43.004;-75.010;2023-07-30T09:30:22;99989.84;;;19.07;76.02
77482;BME280;66582;43.004;-75.010;2023-07-30T09:32:41;99990.34;;;18.56;77.52
77482;BME280;66582;43.004;-75.010;2023-07-30T09:35:06;99989.14;;;19.50;75.42
77482;BME280;66582;43.004;-75.010;2023-07-30T09:37:31;99985.60;;;19.80;75.44
77482;BME280;66582;43.004;-75.010;2023-07-30T09:39:58;99986.63;;;19.71;71.34
77482;BME280;66582;43.004;-75.010;2023-07-30T09:42:22;99985.53;;;20.26;70.26
77482;BME280;66582;43.004;-75.010;2023-07-30T09:44:47;99992.88;;;19.96;72.16
77482;BME280;66582;43.004;-75.010;2023-07-30T09:47:11;99992.94;;;19.54;74.43
77482;BME280;66582;43.004;-75.010;2023-07-30T09:49:37;99995.18;;;19.71;72.72
77482;BME280;66582;43.004;-75.010;2023-07-30T09:52:06;99989.90;;;20.75;70.02
77482;BME280;66582;43.004;-75.010;2023-07-30T09:54:27;99991.73;;;20.81;69.38
77482;BME280;66582;43.004;-75.010;2023-07-30T09:56:52;99992.38;;;20.14;69.50
77482;BME280;66582;43.004;-75.010;2023-07-30T09:59:17;99997.13;;;19.21;72.75
77482;BME280;66582;43.004;-75.010;2023-07-30T10:01:45;99996.78;;;19.01;72.35
77482;BME280;66582;43.004;-75.010;2023-07-30T10:04:10;99998.59;;;18.29;76.07
77482;BME280;66582;43.004;-75.010;2023-07-30T10:06:33;99990.97;;;20.16;70.35
77482;BME280;66582;43.004;-75.010;2023-07-30T10:09:01;99993.73;;;19.13;73.81
77482;BME280;66582;43.004;-75.010;2023-07-30T10:11:23;99995.10;;;20.42;69.58
77482;BME280;66582;43.004;-75.010;2023-07-30T10:13:48;99998.90;;;19.25;72.85
77482;BME280;66582;43.004;-75.010;2023-07-30T10:16:13;99998.75;;;18.43;77.86
77482;BME280;66582;43.004;-75.010;2023-07-30T10:18:39;100000.68;;;17.82;78.15
77482;BME280;66582;43.004;-75.010;2023-07-30T10:21:03;100003.85;;;17.77;84.08
77482;BME280;66582;43.004;-75.010;2023-07-30T10:23:29;100000.76;;;19.47;74.51
77482;BME280;66582;43.004;-75.010;2023-07-30T10:25:53;99999.79;;;19.43;72.61
77482;BME280;66582;43.004;-75.010;2023-07-30T10:28:31;100011.48;;;16.66;84.43
77482;BME280;66582;43.004;-75.010;2023-07-30T10:33:10;100015.63;;;17.94;79.73
77482;BME280;66582;43.004;-75.010;2023-07-30T10:35:37;100010.34;;;19.04;76.84
77482;BME280;66582;43.004;-75.010;2023-07-30T10:38:00;100007.18;;;19.62;75.06
77482;BME280;66582;43.004;-75.010;2023-07-30T10:40:25;100010.44;;;18.21;77.14
77482;BME280;66582;43.004;-75.010;2023-07-30T10:42:51;100008.35;;;19.19;75.69
77482;BME280;66582;43.004;-75.010;2023-07-30T10:45:16;100012.78;;;18.85;77.36
77482;BME280;66582;43.004;-75.010;2023-07-30T10:47:42;100017.96;;;18.35;81.38
77482;BME280;66582;43.004;-75.010;2023-07-30T10:50:06;100017.38;;;19.02;80.49
77482;BME280;66582;43.004;-75.010;2023-07-30T10:52:31;100022.15;;;18.96;77.91
77482;BME280;66582;43.004;-75.010;2023-07-30T10:55:00;100025.82;;;19.00;77.48
77482;BME280;66582;43.004;-75.010;2023-07-30T10:57:21;100030.28;;;19.03;77.26
77482;BME280;66582;43.004;-75.010;2023-07-30T10:59:46;100033.07;;;20.57;72.51
77482;BME280;66582;43.004;-75.010;2023-07-30T11:02:12;100037.95;;;20.00;71.95
77482;BME280;66582;43.004;-75.010;2023-07-30T11:04:37;100037.50;;;20.52;70.67
77482;BME280;66582;43.004;-75.010;2023-07-30T11:07:02;100036.65;;;19.10;75.04
77482;BME280;66582;43.004;-75.010;2023-07-30T11:09:28;100038.48;;;20.59;71.16
77482;BME280;66582;43.004;-75.010;2023-07-30T11:11:53;100038.83;;;20.38;69.73
77482;BME280;66582;43.004;-75.010;2023-07-30T11:14:18;100038.89;;;21.01;68.17
77482;BME280;66582;43.004;-75.010;2023-07-30T11:16:49;100045.92;;;19.95;70.29
77482;BME280;66582;43.004;-75.010;2023-07-30T11:19:08;100049.62;;;19.20;74.15
77482;BME280;66582;43.004;-75.010;2023-07-30T11:21:33;100053.63;;;19.97;72.65
77482;BME280;66582;43.004;-75.010;2023-07-30T11:23:58;100054.38;;;19.41;75.52
77482;BME280;66582;43.004;-75.010;2023-07-30T11:26:23;100055.71;;;19.38;73.16
77482;BME280;66582;43.004;-75.010;2023-07-30T11:28:48;100061.62;;;20.03;71.97
77482;BME280;66582;43.004;-75.010;2023-07-30T11:31:15;100059.19;;;19.73;72.55
77482;BME280;66582;43.004;-75.010;2023-07-30T11:33:40;100059.85;;;19.09;75.05
77482;BME280;66582;43.004;-75.010;2023-07-30T11:36:04;100060.72;;;18.96;75.97
77482;BME280;66582;43.004;-75.010;2023-07-30T11:38:30;100067.55;;;18.30;82.35
77482;BME280;66582;43.004;-75.010;2023-07-30T11:40:55;100067.57;;;19.67;77.99
77482;BME280;66582;43.004;-75.010;2023-07-30T11:43:20;100067.32;;;20.05;73.94
77482;BME280;66582;43.004;-75.010;2023-07-30T11:45:44;100068.06;;;21.14;69.84
77482;BME280;66582;43.004;-75.010;2023-07-30T11:48:11;100069.64;;;20.19;71.14
77482;BME280;66582;43.004;-75.010;2023-07-30T11:50:44;100078.74;;;17.82;79.56
77482;BME280;66582;43.004;-75.010;2023-07-30T11:52:59;100083.72;;;17.78;84.66
77482;BME280;66582;43.004;-75.010;2023-07-30T11:57:50;100079.59;;;20.24;73.62
77482;BME280;66582;43.004;-75.010;2023-07-30T12:00:16;100080.58;;;20.73;72.34
77482;BME280;66582;43.004;-75.010;2023-07-30T12:02:40;100080.47;;;20.49;70.80
77482;BME280;66582;43.004;-75.010;2023-07-30T12:05:06;100082.67;;;20.20;71.52
77482;BME280;66582;43.004;-75.010;2023-07-30T12:07:33;100081.99;;;19.60;75.48
77482;BME280;66582;43.004;-75.010;2023-07-30T12:12:25;100086.31;;;20.69;71.26
77482;BME280;66582;43.004;-75.010;2023-07-30T12:14:53;100090.70;;;20.95;71.20
77482;BME280;66582;43.004;-75.010;2023-07-30T12:17:12;100090.49;;;20.29;74.83
77482;BME280;66582;43.004;-75.010;2023-07-30T12:19:36;100093.22;;;20.18;74.50
77482;BME280;66582;43.004;-75.010;2023-07-30T12:22:02;100088.24;;;20.17;75.23
77482;BME280;66582;43.004;-75.010;2023-07-30T12:24:26;100088.67;;;19.88;73.91
77482;BME280;66582;43.004;-75.010;2023-07-30T12:26:52;100089.54;;;20.28;70.91
77482;BME280;66582;43.004;-75.010;2023-07-30T12:29:16;100094.05;;;20.59;69.40
77482;BME280;66582;43.004;-75.010;2023-07-30T12:31:42;100090.65;;;19.35;76.53
77482;BME280;66582;43.004;-75.010;2023-07-30T12:34:07;100089.27;;;19.12;75.21